Time;durP1;ratioP1;P1;durP2;ratioP2;P2;SDS_P1;SDS_P2;PMS_P1;PMS_P2;Temp;Humidity;BMP_temperature;BMP_pressure;BME280_temperature;BME280_humidity;BME280_pressure;Samples;Min_cycle;Max_cycle;Signal;HPM_P1;HPM_P2
2022/10/18 00:00:38;;;;;;;7.95;2.30;;;;;;;18.31;100.00;101765.41;5014272;28;20046;-66
2022/10/18 00:03:03;;;;;;;8.20;2.53;;;;;;;18.35;100.00;101771.69;5013989;28;20049;-65
2022/10/18 00:05:28;;;;;;;5.95;2.08;;;;;;;18.30;100.00;101772.03;5028460;28;20129;-65
2022/10/18 00:07:54;;;;;;;5.03;2.58;;;;;;;18.11;100.00;101770.34;5013518;28;20033;-65
2022/10/18 00:10:19;;;;;;;4.43;2.47;;;;;;;18.02;100.00;101772.63;5013825;28;20029;-65
2022/10/18 00:12:45;;;;;;;6.18;2.30;;;;;;;18.08;100.00;101773.03;5014017;28;20038;-66
2022/10/18 00:15:10;;;;;;;4.70;2.33;;;;;;;18.00;100.00;101783.09;5013034;28;20119;-66
2022/10/18 00:17:37;;;;;;;5.13;2.40;;;;;;;18.10;100.00;101781.63;5028613;28;20068;-65
2022/10/18 00:20:04;;;;;;;5.07;2.67;;;;;;;18.17;100.00;101781.66;5033603;28;20189;-66
2022/10/18 00:22:32;;;;;;;4.50;2.22;;;;;;;18.13;100.00;101778.13;5033498;28;20038;-65
2022/10/18 00:24:57;;;;;;;5.15;2.78;;;;;;;18.04;100.00;101781.97;5021676;28;20079;-65
2022/10/18 00:27:23;;;;;;;8.45;2.72;;;;;;;17.95;100.00;101781.50;5028699;28;20052;-66
2022/10/18 00:29:51;;;;;;;3.95;2.53;;;;;;;17.91;100.00;101786.13;5013791;28;20071;-66
2022/10/18 00:32:17;;;;;;;4.75;2.60;;;;;;;18.00;100.00;101785.84;5013324;28;20037;-66
2022/10/18 00:34:42;;;;;;;4.95;2.22;;;;;;;18.06;100.00;101791.72;5012695;28;20108;-65
2022/10/18 00:37:07;;;;;;;5.00;2.40;;;;;;;18.03;100.00;101790.53;5013492;28;20537;-65
2022/10/18 00:39:33;;;;;;;5.10;2.08;;;;;;;18.11;100.00;101789.44;5012397;28;20556;-65
2022/10/18 00:41:58;;;;;;;5.35;2.90;;;;;;;18.10;100.00;101789.81;5028192;28;20441;-66
2022/10/18 00:44:24;;;;;;;4.47;2.30;;;;;;;18.06;100.00;101794.44;5012603;28;20891;-65
2022/10/18 00:46:50;;;;;;;4.78;2.60;;;;;;;17.98;100.00;101804.50;5013338;28;20042;-65
2022/10/18 00:49:26;;;;;;;5.68;2.70;;;;;;;18.00;100.00;101802.97;5013241;28;20037;-65
2022/10/18 00:52:02;;;;;;;4.93;2.63;;;;;;;17.94;100.00;101795.53;5012954;28;20038;-65
2022/10/18 00:54:30;;;;;;;4.63;2.20;;;;;;;17.92;100.00;101790.41;5012529;28;20120;-65
2022/10/18 00:56:56;;;;;;;6.15;2.80;;;;;;;17.84;100.00;101797.00;5025437;28;20402;-65
2022/10/18 00:59:22;;;;;;;7.97;3.28;;;;;;;17.81;100.00;101808.63;5013043;28;20041;-65
2022/10/18 01:01:47;;;;;;;6.55;3.28;;;;;;;17.91;100.00;101791.59;5027120;28;20448;-65
2022/10/18 01:04:14;;;;;;;4.32;2.25;;;;;;;17.91;100.00;101794.31;5010831;28;20045;-65
2022/10/18 01:07:03;;;;;;;7.70;3.00;;;;;;;17.85;100.00;101793.09;5013174;28;20037;-65
2022/10/18 01:09:47;;;;;;;7.68;2.88;;;;;;;17.84;100.00;101805.16;5004878;28;20160;-66
2022/10/18 01:12:38;;;;;;;5.35;2.70;;;;;;;17.86;100.00;101797.41;5026666;28;20509;-65
2022/10/18 01:15:44;;;;;;;8.50;3.40;;;;;;;17.76;100.00;101787.19;5011874;28;20041;-65
2022/10/18 01:18:20;;;;;;;7.72;2.85;;;;;;;17.86;100.00;101793.88;5017689;28;20136;-65
2022/10/18 01:21:12;;;;;;;6.72;2.95;;;;;;;17.90;100.00;101783.78;5026907;28;20069;-65
2022/10/18 01:24:08;;;;;;;7.55;2.58;;;;;;;17.82;100.00;101793.06;5012710;28;20048;-65
2022/10/18 01:27:11;;;;;;;8.15;2.83;;;;;;;17.84;100.00;101796.19;5011466;28;20072;-65
2022/10/18 01:29:58;;;;;;;7.25;2.95;;;;;;;17.86;100.00;101791.94;5012454;28;20042;-65
2022/10/18 01:32:29;;;;;;;7.82;3.13;;;;;;;17.76;100.00;101795.34;5012466;28;20652;-65
2022/10/18 01:35:00;;;;;;;5.90;2.88;;;;;;;17.71;100.00;101798.41;5011705;28;20038;-65
2022/10/18 01:37:27;;;;;;;6.35;3.08;;;;;;;17.68;100.00;101806.53;5012324;28;20666;-65
2022/10/18 01:39:56;;;;;;;6.63;3.40;;;;;;;17.68;100.00;101798.38;5012435;28;20387;-65
2022/10/18 01:42:21;;;;;;;8.27;3.20;;;;;;;17.64;100.00;101792.09;5012073;28;20041;-65
2022/10/18 01:44:49;;;;;;;7.32;3.30;;;;;;;17.64;100.00;101792.91;5011159;28;20037;-65
2022/10/18 01:47:15;;;;;;;6.43;3.17;;;;;;;17.50;100.00;101791.97;5012050;28;20045;-65
2022/10/18 01:49:41;;;;;;;6.65;2.78;;;;;;;17.44;100.00;101788.75;5012335;28;20117;-66
2022/10/18 01:52:12;;;;;;;8.50;2.63;;;;;;;17.45;100.00;101798.50;5011945;28;20597;-65
2022/10/18 01:54:40;;;;;;;7.40;3.57;;;;;;;17.55;100.00;101795.16;5010795;28;20042;-65
2022/10/18 01:57:16;;;;;;;4.75;2.83;;;;;;;17.54;100.00;101801.72;5024352;28;20038;-65
2022/10/18 01:59:47;;;;;;;5.50;2.92;;;;;;;17.54;100.00;101801.72;5011968;28;20096;-66
2022/10/18 02:02:35;;;;;;;;;;;;;;;17.35;100.00;101806.53;5012262;28;20486;-66
2022/10/18 02:05:13;;;;;;;6.97;2.88;;;;;;;17.39;100.00;101812.81;5010047;28;19914;-65
2022/10/18 02:07:47;;;;;;;6.03;3.28;;;;;;;17.36;100.00;101808.91;5011946;28;20497;-65
2022/10/18 02:10:38;;;;;;;5.90;3.20;;;;;;;17.37;100.00;101812.41;5010308;28;20063;-65
2022/10/18 02:13:03;;;;;;;5.53;2.88;;;;;;;17.35;100.00;101822.88;5010508;28;20133;-65
2022/10/18 02:15:34;;;;;;;7.60;3.33;;;;;;;17.31;100.00;101811.97;5010963;28;20124;-65
2022/10/18 02:18:02;;;;;;;7.47;3.47;;;;;;;17.33;100.00;101814.31;5029416;28;20034;-65
2022/10/18 02:20:28;;;;;;;8.38;3.50;;;;;;;17.29;100.00;101806.09;5023040;28;20041;-65
2022/10/18 02:22:56;;;;;;;5.72;2.75;;;;;;;17.26;100.00;101800.63;5011708;28;20065;-65
2022/10/18 02:25:25;;;;;;;8.80;3.30;;;;;;;17.27;100.00;101802.16;5010780;28;20041;-65
2022/10/18 02:27:53;;;;;;;6.40;2.92;;;;;;;17.31;100.00;101803.00;5026723;28;20064;-65
2022/10/18 02:30:23;;;;;;;6.90;3.10;;;;;;;17.24;100.00;101800.19;5011249;28;20467;-66
2022/10/18 02:32:55;;;;;;;8.25;3.17;;;;;;;17.24;100.00;101792.81;5011711;28;20088;-65
2022/10/18 02:35:28;;;;;;;9.27;3.85;;;;;;;17.21;100.00;101787.34;5010746;28;20056;-65
2022/10/18 02:37:55;;;;;;;8.75;3.95;;;;;;;17.26;100.00;101789.72;5021667;28;20075;-65
2022/10/18 02:40:21;;;;;;;7.10;3.72;;;;;;;17.21;100.00;101784.63;5018955;28;20073;-65
2022/10/18 02:42:49;;;;;;;11.88;3.40;;;;;;;17.22;100.00;101792.41;5011478;28;20491;-65
2022/10/18 02:45:16;;;;;;;12.40;4.25;;;;;;;17.22;100.00;101786.97;5010395;28;20037;-66
2022/10/18 02:47:41;;;;;;;6.38;3.28;;;;;;;17.19;100.00;101787.69;5011069;28;20121;-65
2022/10/18 02:50:07;;;;;;;11.25;3.53;;;;;;;17.13;100.00;101791.91;5011367;28;20156;-65
2022/10/18 02:52:32;;;;;;;10.52;3.95;;;;;;;17.04;100.00;101796.84;5010958;28;20398;-66
2022/10/18 02:54:58;;;;;;;7.53;3.90;;;;;;;17.00;100.00;101791.38;5025085;28;20065;-65
2022/10/18 02:57:23;;;;;;;8.18;3.97;;;;;;;16.94;100.00;101794.78;5009728;28;20033;-65
2022/10/18 02:59:52;;;;;;;10.13;4.18;;;;;;;16.90;100.00;101791.22;5011334;28;20038;-65
2022/10/18 03:02:17;;;;;;;8.02;3.38;;;;;;;16.85;100.00;101786.91;5009738;28;20030;-65
2022/10/18 03:04:43;;;;;;;7.10;3.05;;;;;;;16.84;100.00;101793.47;5010289;28;20498;-65
2022/10/18 03:07:08;;;;;;;12.25;3.85;;;;;;;16.88;100.00;101791.59;5011974;28;20029;-65
2022/10/18 03:09:33;;;;;;;7.55;3.78;;;;;;;16.77;100.00;101792.59;5029595;28;20044;-65
2022/10/18 03:11:59;;;;;;;6.47;3.08;;;;;;;16.77;100.00;101795.31;5029457;28;20077;-66
2022/10/18 03:14:24;;;;;;;7.63;3.58;;;;;;;16.71;100.00;101794.88;5028321;28;20171;-65
2022/10/18 03:16:49;;;;;;;6.70;3.40;;;;;;;16.69;100.00;101785.50;5024604;28;20128;-65
2022/10/18 03:19:15;;;;;;;7.68;3.53;;;;;;;16.59;100.00;101792.34;5030785;28;20033;-66
2022/10/18 03:21:40;;;;;;;7.10;2.92;;;;;;;16.53;100.00;101782.94;5030631;28;20489;-65
2022/10/18 03:24:06;;;;;;;7.28;3.30;;;;;;;16.71;100.00;101778.53;5019587;28;20038;-65
2022/10/18 03:26:31;;;;;;;15.25;3.20;;;;;;;16.65;100.00;101776.50;5011036;28;20475;-65
2022/10/18 03:28:56;;;;;;;5.47;3.15;;;;;;;16.63;100.00;101771.44;5010757;28;20035;-65
2022/10/18 03:31:22;;;;;;;6.68;3.33;;;;;;;16.64;100.00;101774.94;5010743;28;20072;-66
2022/10/18 03:33:47;;;;;;;6.25;3.58;;;;;;;16.71;100.00;101777.75;5010547;28;20049;-65
2022/10/18 03:36:13;;;;;;;11.55;4.32;;;;;;;16.71;100.00;101772.31;5010183;28;20095;-66
2022/10/18 03:38:38;;;;;;;6.00;3.10;;;;;;;16.70;100.00;101777.00;5010937;28;20096;-66
2022/10/18 03:41:04;;;;;;;8.57;4.57;;;;;;;16.77;100.00;101782.50;5011070;28;20045;-65
2022/10/18 03:43:29;;;;;;;12.10;4.38;;;;;;;16.75;100.00;101778.59;5013173;28;20498;-65
2022/10/18 03:45:54;;;;;;;9.90;4.10;;;;;;;16.74;100.00;101777.03;5013002;28;20117;-65
2022/10/18 03:48:20;;;;;;;8.57;3.78;;;;;;;16.76;100.00;101767.31;5014292;28;20489;-65
2022/10/18 03:50:45;;;;;;;12.38;4.20;;;;;;;16.81;100.00;101774.38;5012814;28;20036;-65
2022/10/18 03:53:11;;;;;;;8.90;3.58;;;;;;;16.73;100.00;101773.50;5014225;28;20034;-65
2022/10/18 03:55:37;;;;;;;7.55;3.72;;;;;;;16.80;100.00;101772.84;5012190;28;20038;-66
2022/10/18 03:58:03;;;;;;;9.70;3.80;;;;;;;16.78;100.00;101781.34;5011109;28;20061;-65
2022/10/18 04:00:28;;;;;;;7.30;3.45;;;;;;;16.72;100.00;101780.13;5013750;28;20069;-65
2022/10/18 04:02:54;;;;;;;8.85;3.53;;;;;;;16.69;100.00;101782.78;5013934;28;20069;-65
2022/10/18 04:05:20;;;;;;;7.53;3.75;;;;;;;16.61;100.00;101772.94;5013046;28;20489;-66
2022/10/18 04:07:48;;;;;;;8.68;3.75;;;;;;;16.61;100.00;101767.50;5013479;28;20041;-65
2022/10/18 04:10:14;;;;;;;12.02;3.35;;;;;;;16.57;100.00;101766.69;5014258;28;20050;-65
2022/10/18 04:12:39;;;;;;;8.52;4.03;;;;;;;16.56;100.00;101776.00;5013924;28;20048;-65
2022/10/18 04:15:05;;;;;;;10.80;3.83;;;;;;;16.63;100.00;101773.34;5012421;28;20041;-65
2022/10/18 04:17:30;;;;;;;7.60;3.53;;;;;;;16.61;100.00;101770.22;5027189;28;20041;-65
2022/10/18 04:19:59;;;;;;;8.63;3.92;;;;;;;16.66;100.00;101769.91;5033545;28;20044;-66
2022/10/18 04:22:24;;;;;;;7.70;3.53;;;;;;;16.61;100.00;101764.78;5033402;28;20069;-65
2022/10/18 04:24:51;;;;;;;7.22;3.50;;;;;;;16.63;100.00;101763.28;5013046;28;20049;-65
2022/10/18 04:27:17;;;;;;;8.13;3.50;;;;;;;16.62;100.00;101758.19;5028993;28;20038;-65
2022/10/18 04:29:42;;;;;;;11.70;4.18;;;;;;;16.60;100.00;101752.34;5013226;28;20053;-65
2022/10/18 04:32:07;;;;;;;11.07;3.83;;;;;;;16.58;100.00;101758.16;5013193;28;20034;-65
2022/10/18 04:34:33;;;;;;;9.18;3.67;;;;;;;16.48;100.00;101761.50;5011135;28;20022;-65
2022/10/18 04:36:58;;;;;;;9.10;3.33;;;;;;;16.48;100.00;101758.78;5013232;28;20041;-65
2022/10/18 04:39:24;;;;;;;8.68;3.97;;;;;;;16.45;100.00;101754.06;5013393;28;20037;-65
2022/10/18 04:41:49;;;;;;;8.25;3.75;;;;;;;16.44;100.00;101746.25;5012073;28;20030;-65
2022/10/18 04:44:14;;;;;;;11.60;4.38;;;;;;;16.48;100.00;101752.53;5012260;28;20029;-65
2022/10/18 04:46:40;;;;;;;10.73;3.92;;;;;;;16.45;100.00;101758.72;5028459;28;20041;-65
2022/10/18 04:49:05;;;;;;;7.40;3.65;;;;;;;16.43;100.00;101750.13;5012821;28;20034;-65
2022/10/18 04:51:30;;;;;;;8.13;3.63;;;;;;;16.39;100.00;101746.59;5013083;28;20045;-66
2022/10/18 04:53:56;;;;;;;9.20;4.13;;;;;;;16.34;100.00;101746.91;5011150;28;20084;-66
2022/10/18 04:56:21;;;;;;;9.82;4.40;;;;;;;16.26;100.00;101757.66;5011610;28;20087;-65
2022/10/18 04:58:47;;;;;;;11.00;4.07;;;;;;;16.22;100.00;101758.75;5011056;28;20026;-66
2022/10/18 05:01:12;;;;;;;8.63;3.70;;;;;;;16.22;100.00;101762.25;5012946;28;20052;-66
2022/10/18 05:03:38;;;;;;;6.72;3.50;;;;;;;16.15;100.00;101755.94;5011521;28;20029;-65
2022/10/18 05:06:04;;;;;;;12.00;4.22;;;;;;;16.10;100.00;101764.41;5011646;28;20117;-65
2022/10/18 05:08:32;;;;;;;14.10;6.13;;;;;;;16.09;100.00;101762.81;5012600;28;20041;-65
2022/10/18 05:10:58;;;;;;;14.02;5.07;;;;;;;16.10;100.00;101765.16;5012647;28;20072;-66
2022/10/18 05:13:24;;;;;;;12.63;3.97;;;;;;;16.07;100.00;101763.19;5012642;28;20065;-65
2022/10/18 05:15:49;;;;;;;8.13;3.92;;;;;;;16.12;100.00;101756.69;5011926;28;20034;-65
2022/10/18 05:18:15;;;;;;;10.88;4.05;;;;;;;16.13;100.00;101758.22;5027502;28;20040;-65
2022/10/18 05:20:40;;;;;;;10.60;4.07;;;;;;;16.18;100.00;101761.41;5012553;28;20121;-66
2022/10/18 05:23:09;;;;;;;9.77;3.72;;;;;;;16.20;100.00;101752.91;5012275;28;20030;-65
2022/10/18 05:25:38;;;;;;;10.27;3.95;;;;;;;16.16;100.00;101744.69;5011543;28;20038;-65
2022/10/18 05:28:03;;;;;;;7.55;3.80;;;;;;;16.22;100.00;101745.94;5012016;28;20032;-65
2022/10/18 05:30:28;;;;;;;9.68;4.40;;;;;;;16.24;100.00;101748.28;5012351;28;20033;-65
2022/10/18 05:32:54;;;;;;;10.07;4.93;;;;;;;16.24;100.00;101738.22;5012258;28;20041;-65
2022/10/18 05:35:19;;;;;;;8.57;4.13;;;;;;;16.28;100.00;101758.09;5011360;28;20402;-65
2022/10/18 05:37:44;;;;;;;9.32;3.95;;;;;;;16.24;100.00;101757.25;5012181;28;20418;-65
2022/10/18 05:40:10;;;;;;;9.32;4.18;;;;;;;16.27;100.00;101759.25;5027619;28;20108;-65
2022/10/18 05:42:36;;;;;;;8.60;3.85;;;;;;;16.31;100.00;101755.78;5027206;28;20379;-65
2022/10/18 05:45:01;;;;;;;12.63;4.85;;;;;;;16.34;100.00;101763.97;5026423;28;20088;-65
2022/10/18 05:47:29;;;;;;;12.57;4.78;;;;;;;16.26;100.00;101760.38;5011951;28;20045;-65
2022/10/18 05:49:55;;;;;;;11.15;4.47;;;;;;;16.27;100.00;101764.69;5012117;28;20045;-66
2022/10/18 05:52:20;;;;;;;12.73;4.80;;;;;;;16.28;100.00;101766.25;5011738;28;20021;-65
2022/10/18 05:54:45;;;;;;;10.30;4.60;;;;;;;16.37;100.00;101766.00;5010940;28;20072;-66
2022/10/18 05:57:11;;;;;;;11.00;4.40;;;;;;;16.47;100.00;101764.56;5008910;28;20069;-65
2022/10/18 05:59:36;;;;;;;10.55;4.65;;;;;;;16.51;100.00;101768.91;5010791;28;20099;-65
2022/10/18 06:02:02;;;;;;;14.30;4.85;;;;;;;16.50;100.00;101770.09;5012039;28;20034;-65
2022/10/18 06:04:27;;;;;;;13.82;5.35;;;;;;;16.51;100.00;101777.06;5010393;28;20025;-65
2022/10/18 06:06:54;;;;;;;12.68;5.18;;;;;;;16.50;100.00;101783.69;5011688;28;20526;-65
2022/10/18 06:09:20;;;;;;;10.05;4.68;;;;;;;16.53;100.00;101787.63;5011919;28;20040;-65
2022/10/18 06:11:45;;;;;;;13.13;5.20;;;;;;;16.60;100.00;101785.78;5011278;28;20490;-66
2022/10/18 06:14:10;;;;;;;17.95;5.70;;;;;;;16.62;100.00;101783.47;5010746;28;20033;-65
2022/10/18 06:16:36;;;;;;;15.80;5.85;;;;;;;16.58;100.00;101773.69;5017714;28;20037;-66
2022/10/18 06:19:01;;;;;;;16.42;5.80;;;;;;;16.65;100.00;101776.50;5030318;28;20308;-65
2022/10/18 06:21:27;;;;;;;13.60;5.35;;;;;;;16.76;100.00;101783.66;5029937;28;20040;-66
2022/10/18 06:23:55;;;;;;;13.98;5.47;;;;;;;16.66;100.00;101778.06;5021711;28;20037;-65
2022/10/18 06:26:21;;;;;;;14.57;5.30;;;;;;;16.70;100.00;101787.88;5011293;28;20041;-65
2022/10/18 06:28:46;;;;;;;17.40;5.78;;;;;;;16.75;100.00;101781.31;5011339;28;20244;-65
2022/10/18 06:31:12;;;;;;;16.23;6.20;;;;;;;16.71;100.00;101786.69;5010054;28;20030;-65
2022/10/18 06:33:38;;;;;;;15.13;5.90;;;;;;;16.79;100.00;101791.09;5011529;28;20490;-65
2022/10/18 06:36:10;;;;;;;16.77;6.05;;;;;;;16.79;100.00;101787.56;5010687;28;20045;-66
2022/10/18 06:38:35;;;;;;;18.35;5.88;;;;;;;16.80;100.00;101789.16;5011255;28;20033;-66
2022/10/18 06:41:01;;;;;;;18.77;6.25;;;;;;;16.75;100.00;101778.59;5011063;28;20474;-65
2022/10/18 06:43:27;;;;;;;15.88;5.22;;;;;;;16.70;100.00;101781.63;5010116;28;20022;-65
2022/10/18 06:45:53;;;;;;;18.48;5.50;;;;;;;16.70;100.00;101777.00;5009453;28;20057;-65
2022/10/18 06:48:19;;;;;;;24.80;5.95;;;;;;;16.61;100.00;101781.09;5011119;28;20048;-65
2022/10/18 06:50:56;;;;;;;18.05;5.60;;;;;;;16.60;100.00;101782.28;5010957;28;20123;-65
2022/10/18 06:53:27;;;;;;;17.83;5.82;;;;;;;16.73;100.00;101786.31;5011058;28;20265;-66
2022/10/18 06:56:09;;;;;;;18.83;5.78;;;;;;;16.73;100.00;101778.97;5010524;28;20041;-65
2022/10/18 06:58:34;;;;;;;;;;;;;;;16.81;100.00;101793.44;5008930;28;20498;-66
2022/10/18 07:01:09;;;;;;;16.65;6.05;;;;;;;16.89;100.00;101800.53;5010843;28;20004;-65
2022/10/18 07:03:35;;;;;;;22.05;6.45;;;;;;;16.81;100.00;101802.41;5011153;28;20042;-66
2022/10/18 07:06:05;;;;;;;18.35;5.85;;;;;;;16.81;100.00;101815.22;5009983;28;20037;-65
2022/10/18 07:08:30;;;;;;;14.68;6.20;;;;;;;16.65;100.00;101815.38;5011057;28;20095;-65
2022/10/18 07:10:56;;;;;;;16.20;5.88;;;;;;;16.70;100.00;101820.50;5009827;28;20482;-65
2022/10/18 07:13:21;;;;;;;22.17;6.38;;;;;;;16.77;100.00;101820.59;5011144;28;20124;-65
2022/10/18 07:15:47;;;;;;;16.38;6.65;;;;;;;16.68;100.00;101822.81;5014118;28;20042;-65
2022/10/18 07:18:13;;;;;;;15.98;6.07;;;;;;;16.49;100.00;101816.69;5034126;28;20103;-65
2022/10/18 07:20:38;;;;;;;22.08;6.60;;;;;;;16.41;100.00;101826.66;5034141;28;20511;-65
2022/10/18 07:23:07;;;;;;;16.88;6.32;;;;;;;16.53;100.00;101826.47;5033403;28;20022;-65
2022/10/18 07:25:32;;;;;;;15.18;6.28;;;;;;;16.54;100.00;101840.84;5016283;28;20173;-66
2022/10/18 07:27:58;;;;;;;15.90;6.47;;;;;;;16.45;100.00;101845.75;5014699;28;20050;-66
2022/10/18 07:30:23;;;;;;;15.73;5.20;;;;;;;16.64;100.00;101848.38;5014559;28;20406;-65
2022/10/18 07:32:50;;;;;;;14.43;5.72;;;;;;;16.70;100.00;101852.38;4997019;28;20145;-65
2022/10/18 07:35:16;;;;;;;18.05;5.93;;;;;;;16.80;100.00;101843.59;5013415;28;20049;-65
2022/10/18 07:37:41;;;;;;;15.60;5.47;;;;;;;16.89;100.00;101847.59;5014362;28;20256;-65
2022/10/18 07:40:07;;;;;;;17.75;6.18;;;;;;;16.98;100.00;101861.72;5014636;28;20044;-65
2022/10/18 07:42:34;;;;;;;13.65;5.22;;;;;;;16.86;100.00;101855.72;5015056;28;20092;-65
2022/10/18 07:44:59;;;;;;;14.32;5.70;;;;;;;16.71;100.00;101859.38;5013465;28;20479;-65
2022/10/18 07:47:25;;;;;;;15.18;5.70;;;;;;;16.79;100.00;101858.31;5014099;28;20045;-65
2022/10/18 07:49:50;;;;;;;14.80;5.95;;;;;;;16.74;100.00;101850.50;5013900;28;20072;-65
2022/10/18 07:52:15;;;;;;;13.27;4.40;;;;;;;16.88;100.00;101850.66;5014160;28;20137;-65
2022/10/18 07:54:41;;;;;;;12.32;4.53;;;;;;;16.96;100.00;101844.97;5012969;28;20096;-65
2022/10/18 07:57:06;;;;;;;21.00;5.72;;;;;;;16.93;100.00;101840.28;5011484;28;20034;-65
2022/10/18 07:59:32;;;;;;;13.80;5.22;;;;;;;16.97;100.00;101832.16;5013099;28;20510;-65
2022/10/18 08:01:57;;;;;;;17.80;5.55;;;;;;;17.01;100.00;101849.31;5014259;28;20064;-65
2022/10/18 08:04:22;;;;;;;14.60;4.93;;;;;;;17.02;100.00;101848.16;5013171;28;20475;-65
2022/10/18 08:06:48;;;;;;;16.08;5.45;;;;;;;16.93;100.00;101834.03;5014079;28;20532;-65
2022/10/18 08:09:13;;;;;;;12.82;4.75;;;;;;;16.94;100.00;101846.47;5013574;28;20491;-65
2022/10/18 08:11:38;;;;;;;12.13;4.35;;;;;;;17.02;100.00;101859.81;5013977;28;20078;-65
2022/10/18 08:14:04;;;;;;;18.13;4.70;;;;;;;17.11;100.00;101851.41;5013149;28;20029;-65
2022/10/18 08:16:30;;;;;;;12.95;4.47;;;;;;;17.21;100.00;101850.72;5018944;28;20498;-65
2022/10/18 08:18:58;;;;;;;11.48;4.28;;;;;;;17.14;100.00;101854.16;5015781;28;20033;-66
2022/10/18 08:21:24;;;;;;;14.43;4.30;;;;;;;17.18;100.00;101859.66;5033221;28;20037;-65
2022/10/18 08:23:50;;;;;;;12.88;4.50;;;;;;;17.26;100.00;101852.34;5032423;28;20104;-65
2022/10/18 08:26:20;;;;;;;9.32;3.75;;;;;;;17.27;100.00;101851.97;5011929;28;20061;-66
2022/10/18 08:28:46;;;;;;;13.85;4.85;;;;;;;17.11;100.00;101859.56;5013417;28;20041;-65
2022/10/18 08:31:16;;;;;;;11.00;3.88;;;;;;;17.13;100.00;101857.22;5013606;28;20038;-66
2022/10/18 08:33:42;;;;;;;12.75;5.18;;;;;;;17.23;100.00;101853.09;5013241;28;20049;-65
2022/10/18 08:36:11;;;;;;;15.15;5.03;;;;;;;17.31;100.00;101860.19;5012893;28;20471;-65
2022/10/18 08:38:39;;;;;;;13.93;4.93;;;;;;;17.30;100.00;101858.63;5013726;28;20029;-66
2022/10/18 08:41:45;;;;;;;8.63;3.97;;;;;;;17.27;100.00;101849.25;5013163;28;20037;-66
2022/10/18 08:44:17;;;;;;;17.85;5.93;;;;;;;17.15;100.00;101858.44;5027687;28;20428;-66
2022/10/18 08:46:49;;;;;;;12.75;4.63;;;;;;;17.25;100.00;101848.84;5011924;28;20417;-66
2022/10/18 08:49:27;;;;;;;13.05;4.57;;;;;;;17.08;100.00;101846.69;5013194;28;20048;-66
2022/10/18 08:51:53;;;;;;;14.00;5.55;;;;;;;17.10;100.00;101855.25;5012838;28;20140;-65
2022/10/18 08:54:25;;;;;;;20.83;6.22;;;;;;;17.11;100.00;101854.88;5012045;28;20079;-66
2022/10/18 08:56:56;;;;;;;;;;;;;;;17.17;100.00;101851.84;5009014;28;20037;-66
2022/10/18 08:59:22;;;;;;;;;;;;;;;16.91;100.00;101847.22;5013487;28;20436;-66
2022/10/18 09:02:00;;;;;;;14.10;5.22;;;;;;;17.01;100.00;101852.03;5013110;28;20016;-65
2022/10/18 09:04:53;;;;;;;23.65;6.53;;;;;;;17.14;100.00;101861.53;5012032;28;20084;-66
2022/10/18 09:07:36;;;;;;;11.55;5.13;;;;;;;17.17;100.00;101857.31;5013012;28;20041;-65
2022/10/18 09:10:12;;;;;;;16.17;4.85;;;;;;;17.15;100.00;101863.09;5013152;28;20037;-66
2022/10/18 09:13:13;;;;;;;9.07;3.75;;;;;;;17.27;99.96;101862.88;5013235;28;20042;-66
2022/10/18 09:15:53;;;;;;;10.93;4.37;;;;;;;17.27;99.72;101856.63;5006395;28;20045;-66
2022/10/18 09:18:37;;;;;;;11.40;4.10;;;;;;;17.33;99.26;101858.66;5013376;28;20493;-65
2022/10/18 09:21:44;;;;;;;11.18;4.20;;;;;;;17.41;99.28;101863.06;5012954;28;20057;-65
2022/10/18 09:24:33;;;;;;;10.10;3.90;;;;;;;17.35;98.60;101869.19;5010308;28;20073;-65
2022/10/18 09:27:24;;;;;;;10.88;4.00;;;;;;;17.41;98.67;101863.06;5012407;28;20054;-65
2022/10/18 09:30:10;;;;;;;7.88;3.50;;;;;;;17.26;98.44;101866.75;5012642;28;20049;-65
2022/10/18 09:33:05;;;;;;;10.88;4.30;;;;;;;17.17;98.57;101861.56;5010912;28;20510;-65
2022/10/18 09:35:42;;;;;;;14.35;3.80;;;;;;;17.41;99.33;101864.97;5012533;28;20046;-65
2022/10/18 09:38:11;;;;;;;8.15;3.40;;;;;;;17.70;98.63;101873.16;5012557;28;20057;-65
2022/10/18 09:40:48;;;;;;;8.35;3.47;;;;;;;18.04;98.04;101866.47;5012152;28;20506;-65
2022/10/18 09:43:55;;;;;;;10.93;3.75;;;;;;;18.41;97.23;101873.81;5031050;28;20501;-65
2022/10/18 09:46:26;;;;;;;11.23;3.72;;;;;;;18.76;96.19;101871.38;5031575;28;20072;-65
2022/10/18 09:49:06;;;;;;;8.85;3.90;;;;;;;18.84;93.89;101876.50;5032103;28;20143;-65
2022/10/18 09:51:37;;;;;;;7.97;3.42;;;;;;;18.85;92.89;101869.09;5023841;28;20046;-65
2022/10/18 09:54:20;;;;;;;7.25;3.05;;;;;;;18.79;92.65;101876.09;5012214;28;20116;-65
2022/10/18 09:56:55;;;;;;;8.93;3.08;;;;;;;18.76;93.37;101883.09;5012145;28;20029;-65
2022/10/18 09:59:31;;;;;;;9.32;3.15;;;;;;;19.02;92.64;101871.16;5012064;28;20029;-65
2022/10/18 10:01:56;;;;;;;4.82;2.67;;;;;;;19.25;92.00;101866.19;5011008;28;20042;-65
2022/10/18 10:04:21;;;;;;;7.93;3.25;;;;;;;19.31;88.73;101859.19;5011933;28;20032;-65
2022/10/18 10:06:52;;;;;;;10.25;3.00;;;;;;;19.39;88.60;101855.38;5012227;28;20033;-65
2022/10/18 10:09:25;;;;;;;4.87;2.20;;;;;;;19.53;88.45;101854.63;5025924;28;20176;-66
2022/10/18 10:11:51;;;;;;;4.22;2.20;;;;;;;19.55;87.42;101864.00;5012743;28;20030;-66
2022/10/18 10:14:25;;;;;;;6.72;2.30;;;;;;;19.49;86.04;101857.34;4994034;28;20021;-65
2022/10/18 10:16:57;;;;;;;4.82;2.13;;;;;;;19.66;86.51;101861.31;5020190;28;20033;-65
2022/10/18 10:19:33;;;;;;;3.97;1.80;;;;;;;19.87;85.88;101844.94;5026099;28;20038;-65
2022/10/18 10:22:04;;;;;;;6.10;1.90;;;;;;;19.79;85.26;101855.09;5011775;28;20036;-65
2022/10/18 10:24:40;;;;;;;4.70;1.60;;;;;;;19.98;84.40;101858.63;5011651;28;20061;-65
2022/10/18 10:27:15;;;;;;;3.10;1.35;;;;;;;19.91;82.32;101842.19;5011814;28;20049;-65
2022/10/18 10:29:50;;;;;;;5.10;1.52;;;;;;;19.94;80.65;101847.66;5011938;28;20034;-65
2022/10/18 10:32:19;;;;;;;3.63;1.27;;;;;;;20.06;80.75;101852.78;5011785;28;20034;-66
2022/10/18 10:34:44;;;;;;;4.43;0.88;;;;;;;20.11;79.73;101857.09;5011303;28;20053;-66
2022/10/18 10:37:28;;;;;;;1.63;1.02;;;;;;;19.90;77.99;101860.56;5011870;28;20076;-65
2022/10/18 10:40:09;;;;;;;2.28;1.20;;;;;;;19.91;77.32;101853.13;5011867;28;20041;-65
2022/10/18 10:42:47;;;;;;;3.95;1.15;;;;;;;20.07;77.54;101859.03;5010451;28;20044;-66
2022/10/18 10:45:13;;;;;;;2.00;0.77;;;;;;;20.12;76.77;101861.38;5011371;28;20119;-65
2022/10/18 10:47:39;;;;;;;2.80;1.17;;;;;;;19.97;75.64;101855.13;5011815;28;20072;-65
2022/10/18 10:50:11;;;;;;;1.48;0.80;;;;;;;19.97;75.76;101860.59;5011772;28;20037;-65
2022/10/18 10:52:39;;;;;;;2.80;0.98;;;;;;;19.91;74.89;101858.63;5014536;28;20045;-65
2022/10/18 10:55:17;;;;;;;1.55;0.88;;;;;;;20.03;75.10;101852.78;5015226;28;20096;-65
2022/10/18 10:57:47;;;;;;;5.35;1.20;;;;;;;20.04;75.85;101846.13;5015080;28;20038;-65
2022/10/18 11:00:42;;;;;;;6.33;1.00;;;;;;;20.25;76.01;101859.84;5029888;28;20476;-66
2022/10/18 11:03:15;;;;;;;4.57;1.58;;;;;;;20.34;77.04;101873.94;5015606;28;20052;-66
2022/10/18 11:05:54;;;;;;;1.95;1.42;;;;;;;20.37;76.64;101881.34;5013994;28;20038;-65
2022/10/18 11:08:24;;;;;;;2.30;1.30;;;;;;;20.36;76.34;101872.34;5015408;28;20084;-65
2022/10/18 11:11:16;;;;;;;4.13;1.50;;;;;;;20.31;76.64;101878.22;5015535;28;20038;-65
2022/10/18 11:13:52;;;;;;;5.18;1.67;;;;;;;20.20;77.23;101880.19;5015459;28;20041;-65
2022/10/18 11:16:32;;;;;;;4.15;2.15;;;;;;;20.17;76.51;101880.16;5018974;28;20117;-65
2022/10/18 11:19:01;;;;;;;3.83;1.58;;;;;;;19.99;76.00;101873.88;5029569;28;20057;-66
2022/10/18 11:21:30;;;;;;;3.60;1.60;;;;;;;20.16;75.82;101879.38;5015385;28;20124;-65
2022/10/18 11:23:58;;;;;;;2.38;1.50;;;;;;;20.17;75.56;101880.16;5014988;28;20033;-66
2022/10/18 11:26:53;;;;;;;2.40;1.30;;;;;;;20.05;75.04;101872.31;5014857;28;20491;-65
2022/10/18 11:29:30;;;;;;;2.75;1.10;;;;;;;19.98;74.20;101884.03;5012125;28;20112;-65